Time;durP1;ratioP1;P1;durP2;ratioP2;P2;SDS_P1;SDS_P2;PMS_P1;PMS_P2;Temp;Humidity;BMP_temperature;BMP_pressure;BME280_temperature;BME280_humidity;BME280_pressure;Samples;Min_cycle;Max_cycle;Signal;HPM_P1;HPM_P2
2022/10/23 00:00:46;;;;;;;0.10;0.10;;;;;;;14.32;70.02;101435.13;5064812;28;20035;-77
2022/10/23 00:03:12;;;;;;;0.10;0.10;;;;;;;14.30;69.99;101434.28;5065674;28;20032;-77
2022/10/23 00:05:40;;;;;;;0.10;0.10;;;;;;;14.26;69.88;101429.94;5068344;28;20039;-77
2022/10/23 00:08:06;;;;;;;0.20;0.20;;;;;;;14.23;69.86;101421.13;5061774;28;20400;-77
2022/10/23 00:10:33;;;;;;;0.10;0.10;;;;;;;14.21;69.98;101420.25;5065554;28;20044;-77
2022/10/23 00:12:59;;;;;;;0.10;0.10;;;;;;;14.20;69.79;101420.31;5065816;28;20053;-77
2022/10/23 00:15:26;;;;;;;0.10;0.10;;;;;;;14.17;70.12;101418.59;5073725;28;20036;-77
2022/10/23 00:17:53;;;;;;;1.20;0.57;;;;;;;14.17;70.22;101417.75;5068013;28;20017;-77
2022/10/23 00:20:19;;;;;;;0.10;0.10;;;;;;;14.15;70.10;101423.09;5072317;28;20433;-77
2022/10/23 00:22:45;;;;;;;0.10;0.10;;;;;;;14.14;70.23;101421.34;5067991;28;20116;-77
2022/10/23 00:25:11;;;;;;;0.10;0.10;;;;;;;14.15;70.24;101422.22;5067957;28;20094;-77
2022/10/23 00:27:37;;;;;;;0.10;0.10;;;;;;;14.15;70.36;101419.56;5069099;28;20024;-77
2022/10/23 00:30:05;;;;;;;0.10;0.10;;;;;;;14.14;70.20;101410.66;5067468;28;20071;-77
2022/10/23 00:32:31;;;;;;;0.10;0.10;;;;;;;14.14;70.39;101410.66;5071923;28;20033;-77
2022/10/23 00:34:57;;;;;;;0.10;0.10;;;;;;;14.16;70.51;101405.34;5074893;28;20029;-77
2022/10/23 00:37:23;;;;;;;0.03;0.03;;;;;;;14.17;70.31;101415.06;5071220;28;20409;-77
2022/10/23 00:39:50;;;;;;;0.10;0.10;;;;;;;14.18;70.41;101416.81;5069515;28;20403;-77
2022/10/23 00:42:17;;;;;;;0.10;0.10;;;;;;;14.19;70.66;101411.47;5070153;28;20031;-77
2022/10/23 00:47:18;;;;;;;0.60;0.60;;;;;;;14.21;70.59;101420.25;5117881;27;20172;-77
2022/10/23 00:49:45;;;;;;;0.10;0.10;;;;;;;14.23;70.52;101420.22;5095037;28;20052;-76
2022/10/23 00:52:12;;;;;;;0.20;0.20;;;;;;;14.24;70.93;101419.31;5078368;28;20032;-77
2022/10/23 00:54:41;;;;;;;0.10;0.10;;;;;;;14.26;70.87;101417.50;5079374;28;20055;-78
2022/10/23 00:57:13;;;;;;;0.10;0.10;;;;;;;14.28;70.53;101407.66;5074600;28;20060;-78
2022/10/23 00:59:40;;;;;;;0.10;0.10;;;;;;;14.27;70.61;101403.25;5071390;28;20114;-77
2022/10/23 01:02:06;;;;;;;0.10;0.10;;;;;;;14.28;70.76;101409.44;5076082;28;20029;-78
2022/10/23 01:04:33;;;;;;;0.10;0.10;;;;;;;14.28;70.67;101407.66;5081168;28;20028;-78
2022/10/23 01:07:39;;;;;;;0.00;0.00;;;;;;;14.37;70.39;101406.56;5075324;28;20020;-77
2022/10/23 01:10:29;;;;;;;0.10;0.10;;;;;;;14.32;70.72;101404.00;5078041;28;20045;-76
2022/10/23 01:15:55;;;;;;;0.00;0.00;;;;;;;14.29;70.99;101406.72;5062243;27;20432;-77
2022/10/23 01:18:30;;;;;;;0.10;0.10;;;;;;;14.34;70.85;101395.97;5030159;28;20409;-77
2022/10/23 01:27:05;;;;;;;0.10;0.10;;;;;;;14.37;70.74;101395.88;5157313;27;93049;-77
2022/10/23 01:30:09;;;;;;;0.10;0.10;;;;;;;14.36;70.66;101400.31;5135822;27;20123;-76
2022/10/23 01:32:47;;;;;;;0.05;0.05;;;;;;;14.32;70.71;101393.34;5146135;27;21256;-77
2022/10/23 01:35:21;;;;;;;0.43;0.43;;;;;;;14.29;70.71;101387.22;5139478;27;20023;-77
2022/10/23 01:38:02;;;;;;;0.10;0.10;;;;;;;14.24;70.88;101385.56;5132836;27;20076;-77
2022/10/23 01:43:10;;;;;;;0.10;0.10;;;;;;;14.23;71.10;101377.56;5019736;28;20034;-77
2022/10/23 01:45:42;;;;;;;0.10;0.10;;;;;;;14.23;71.12;101378.47;5086762;28;20028;-77
2022/10/23 01:48:14;;;;;;;0.10;0.10;;;;;;;14.23;71.10;101377.56;5089903;28;20403;-78
2022/10/23 01:50:43;;;;;;;0.10;0.10;;;;;;;14.21;70.73;101368.78;5089992;28;20020;-77
2022/10/23 01:53:09;;;;;;;0.10;0.10;;;;;;;14.19;71.32;101365.25;5089775;28;20039;-77
2022/10/23 01:55:37;;;;;;;0.10;0.10;;;;;;;14.18;70.86;101358.19;5087730;28;20031;-77
2022/10/23 01:58:06;;;;;;;0.32;0.32;;;;;;;14.14;71.11;101351.19;5088572;28;20033;-77
2022/10/23 02:00:35;;;;;;;0.10;0.10;;;;;;;14.11;70.97;101346.81;5086803;28;20032;-76
2022/10/23 02:03:03;;;;;;;0.22;0.22;;;;;;;14.09;70.74;101348.63;5090193;28;20033;-77
2022/10/23 02:05:30;;;;;;;0.10;0.10;;;;;;;14.06;71.04;101351.41;5089808;28;20028;-77
2022/10/23 02:07:57;;;;;;;0.10;0.10;;;;;;;14.02;70.75;101342.59;5086252;28;20056;-77
2022/10/23 02:10:33;;;;;;;0.10;0.10;;;;;;;14.02;70.72;101341.75;5087114;28;20031;-77
2022/10/23 02:13:11;;;;;;;0.00;0.00;;;;;;;14.05;70.81;101341.66;5083875;28;20537;-77
2022/10/23 02:15:45;;;;;;;0.10;0.10;;;;;;;14.00;70.92;101339.09;5088631;28;20058;-77
2022/10/23 02:18:41;;;;;;;0.10;0.10;;;;;;;14.02;70.95;101334.63;5089238;28;20039;-77
2022/10/23 02:23:58;;;;;;;0.10;0.10;;;;;;;14.01;71.37;101340.00;5127133;27;20039;-77
2022/10/23 02:26:37;;;;;;;0.00;0.00;;;;;;;14.00;71.22;101338.25;5087913;28;20426;-77
2022/10/23 02:29:17;;;;;;;0.20;0.20;;;;;;;13.98;71.12;101346.28;5082387;28;20422;-77
2022/10/23 02:31:43;;;;;;;0.10;0.10;;;;;;;13.95;70.90;101350.81;5082588;28;20029;-77
2022/10/23 02:34:09;;;;;;;0.40;0.40;;;;;;;13.91;71.21;101350.88;5087369;28;20044;-76
2022/10/23 02:36:35;;;;;;;0.20;0.20;;;;;;;13.91;71.21;101345.53;5085613;28;20165;-77
2022/10/23 02:39:02;;;;;;;0.00;0.00;;;;;;;13.90;71.07;101337.59;5084520;28;20052;-77
2022/10/23 02:41:43;;;;;;;0.20;0.20;;;;;;;13.93;70.97;101326.00;5083785;28;20039;-77
2022/10/23 02:44:36;;;;;;;0.00;0.00;;;;;;;13.95;71.07;101332.16;5084028;28;20020;-77
2022/10/23 02:47:44;;;;;;;0.10;0.10;;;;;;;13.92;70.87;101325.13;5085315;28;20099;-77
2022/10/23 02:55:46;;;;;;;0.52;0.52;;;;;;;13.94;71.24;101314.41;5098375;27;20616;-77
2022/10/23 03:00:57;;;;;;;0.10;0.10;;;;;;;13.89;71.36;101296.78;5124169;27;20117;-78
2022/10/23 03:03:32;;;;;;;0.25;0.25;;;;;;;13.88;71.11;101287.03;5091831;28;20028;-78
2022/10/23 03:05:58;;;;;;;0.10;0.10;;;;;;;13.85;71.27;101279.13;5089106;28;20017;-78
2022/10/23 03:08:25;;;;;;;0.10;0.10;;;;;;;13.87;70.90;101274.63;5093160;28;20391;-78
2022/10/23 03:10:51;;;;;;;0.10;0.10;;;;;;;13.86;70.94;101264.03;5093215;28;20110;-78
2022/10/23 03:13:18;;;;;;;0.10;0.10;;;;;;;13.87;70.91;101268.44;5089954;28;20048;-79
2022/10/23 03:15:44;;;;;;;0.10;0.10;;;;;;;13.85;71.25;101263.13;5097319;28;20081;-78
2022/10/23 03:18:10;;;;;;;0.10;0.10;;;;;;;13.86;71.24;101267.53;5093843;28;20026;-78
2022/10/23 03:20:36;;;;;;;0.10;0.10;;;;;;;13.86;71.33;101270.22;5095415;28;20020;-78
2022/10/23 03:23:02;;;;;;;0.30;0.30;;;;;;;13.88;71.57;101273.72;5093573;28;20084;-78
2022/10/23 03:25:32;;;;;;;0.10;0.10;;;;;;;13.86;71.73;101262.22;5093971;28;20032;-78
2022/10/23 03:27:59;;;;;;;0.10;0.10;;;;;;;13.88;71.79;101260.41;5090778;28;20128;-79
2022/10/23 03:30:25;;;;;;;0.10;0.10;;;;;;;13.90;71.45;101269.19;5098367;28;20012;-78
2022/10/23 03:32:51;;;;;;;0.10;0.10;;;;;;;13.93;71.43;101252.25;5092969;28;20051;-78
2022/10/23 03:35:17;;;;;;;0.10;0.10;;;;;;;13.95;71.66;101260.22;5094186;28;20093;-78
2022/10/23 03:37:43;;;;;;;0.95;0.90;;;;;;;13.97;71.79;101258.38;5094005;28;20035;-78
2022/10/23 03:40:10;;;;;;;0.10;0.10;;;;;;;13.98;71.79;101250.38;5094102;28;20052;-78
2022/10/23 03:42:36;;;;;;;0.10;0.10;;;;;;;14.00;71.65;101242.31;5094756;28;20060;-78
2022/10/23 03:45:02;;;;;;;0.20;0.20;;;;;;;14.00;71.60;101237.00;5097536;28;20040;-78
2022/10/23 03:47:29;;;;;;;0.10;0.10;;;;;;;13.99;71.78;101236.09;5093910;28;20024;-78
2022/10/23 03:49:55;;;;;;;0.10;0.10;;;;;;;13.99;71.70;101221.94;5093529;28;20070;-79
2022/10/23 03:52:21;;;;;;;0.10;0.10;;;;;;;13.99;71.70;101225.44;5095492;28;20024;-78
2022/10/23 03:54:47;;;;;;;0.10;0.10;;;;;;;13.99;71.65;101220.13;5092244;28;20038;-78
2022/10/23 03:57:13;;;;;;;0.10;0.10;;;;;;;13.99;71.78;101219.25;5093533;28;20031;-77
2022/10/23 03:59:39;;;;;;;0.10;0.10;;;;;;;13.99;71.54;101220.13;5094277;28;20131;-78
2022/10/23 04:02:05;;;;;;;0.10;0.10;;;;;;;14.00;71.61;101218.34;5095082;28;20029;-79
2022/10/23 04:04:31;;;;;;;0.10;0.10;;;;;;;13.99;71.87;101216.59;5093901;28;20028;-76
2022/10/23 04:06:57;;;;;;;0.10;0.10;;;;;;;13.98;71.57;101222.84;5093058;28;20026;-78
2022/10/23 04:09:24;;;;;;;0.10;0.10;;;;;;;13.99;71.77;101216.59;5092674;28;20024;-78
2022/10/23 04:11:50;;;;;;;0.15;0.15;;;;;;;14.02;71.50;101213.88;5080821;28;20029;-78
2022/10/23 04:14:16;;;;;;;0.10;0.10;;;;;;;14.04;71.76;101209.34;5081176;28;20494;-77
2022/10/23 04:16:42;;;;;;;0.10;0.10;;;;;;;14.06;71.80;101210.19;5082097;28;20019;-78
2022/10/23 04:19:08;;;;;;;0.20;0.20;;;;;;;14.08;71.76;101203.00;5079418;28;20033;-78
2022/10/23 04:21:34;;;;;;;0.20;0.20;;;;;;;14.08;72.28;101193.22;5079450;28;20024;-79
2022/10/23 04:24:00;;;;;;;0.10;0.10;;;;;;;14.15;72.18;101193.91;5079262;28;20055;-78
2022/10/23 04:26:27;;;;;;;0.10;0.10;;;;;;;14.17;72.01;101184.09;5081203;28;20116;-78
2022/10/23 04:28:53;;;;;;;0.10;0.10;;;;;;;14.21;71.87;101175.06;5079645;28;20028;-78
2022/10/23 04:31:19;;;;;;;0.10;0.10;;;;;;;14.24;72.00;101172.34;5081176;28;20031;-78
2022/10/23 04:33:45;;;;;;;0.38;0.38;;;;;;;14.28;72.21;101169.56;5079514;28;20048;-79
2022/10/23 04:36:11;;;;;;;0.10;0.10;;;;;;;14.29;72.05;101173.97;5079683;28;20028;-79
2022/10/23 04:38:37;;;;;;;0.10;0.10;;;;;;;14.30;72.07;101175.72;5081090;28;20111;-77
2022/10/23 04:41:03;;;;;;;0.20;0.20;;;;;;;14.30;71.75;101170.41;5076815;28;20028;-78
2022/10/23 04:43:29;;;;;;;0.10;0.10;;;;;;;14.27;71.89;101159.81;5079520;28;20058;-78
2022/10/23 04:45:55;;;;;;;0.10;0.10;;;;;;;14.23;71.82;101157.25;5077938;28;20644;-78
2022/10/23 04:48:21;;;;;;;0.10;0.10;;;;;;;14.22;72.16;101171.50;5078082;28;20567;-79
2022/10/23 04:50:57;;;;;;;0.10;0.10;;;;;;;14.27;72.00;101165.16;5078116;28;20342;-78
2022/10/23 04:53:24;;;;;;;0.17;0.17;;;;;;;14.25;71.96;101162.53;5075471;28;20670;-78
2022/10/23 04:55:52;;;;;;;0.10;0.10;;;;;;;14.24;72.07;101171.44;5078084;28;20036;-78
2022/10/23 04:58:19;;;;;;;0.10;0.10;;;;;;;14.24;71.97;101169.69;5074442;28;20512;-78
2022/10/23 05:00:46;;;;;;;0.10;0.10;;;;;;;14.26;72.21;101171.44;5075455;28;20046;-79
2022/10/23 05:03:12;;;;;;;0.10;0.10;;;;;;;14.23;72.37;101170.59;5077246;28;20107;-78
2022/10/23 05:05:38;;;;;;;0.10;0.10;;;;;;;14.24;72.02;101166.13;5073902;28;20095;-78
2022/10/23 05:08:05;;;;;;;0.10;0.10;;;;;;;14.22;72.01;101163.50;5076204;28;20024;-79
2022/10/23 05:10:31;;;;;;;0.10;0.10;;;;;;;14.21;71.95;101156.44;5079985;28;20161;-78
2022/10/23 05:12:57;;;;;;;0.10;0.10;;;;;;;14.22;71.79;101155.50;5076487;28;20032;-76
2022/10/23 05:15:23;;;;;;;0.10;0.10;;;;;;;14.24;72.05;101159.00;5076958;28;20492;-77
2022/10/23 05:17:55;;;;;;;0.10;0.10;;;;;;;14.27;72.25;101146.50;5075330;28;20066;-76
2022/10/23 05:20:25;;;;;;;0.90;0.90;;;;;;;14.27;72.54;101149.16;5073734;28;20021;-76
2022/10/23 05:22:54;;;;;;;0.10;0.10;;;;;;;14.31;72.31;101140.16;5076604;28;20493;-77
2022/10/23 05:25:20;;;;;;;0.10;0.10;;;;;;;14.28;72.67;101141.13;5083658;28;20084;-77
2022/10/23 05:27:46;;;;;;;0.20;0.20;;;;;;;14.29;72.56;101140.19;5080799;28;20035;-77
2022/10/23 05:30:13;;;;;;;0.10;0.10;;;;;;;14.31;72.78;101145.50;5061809;28;20400;-77
2022/10/23 05:32:39;;;;;;;0.10;0.10;;;;;;;14.31;73.22;101141.03;5089681;28;20180;-77
2022/10/23 05:35:10;;;;;;;0.20;0.20;;;;;;;14.35;73.30;101144.47;5087346;28;20063;-76
2022/10/23 05:37:38;;;;;;;0.13;0.13;;;;;;;14.39;72.92;101149.69;5079210;28;20020;-77
2022/10/23 05:40:05;;;;;;;5.45;1.63;;;;;;;14.38;73.54;101147.91;5074121;28;20120;-77
2022/10/23 05:42:31;;;;;;;0.17;0.17;;;;;;;14.34;73.22;101150.72;5074894;28;20448;-77
2022/10/23 05:44:57;;;;;;;1.00;0.95;;;;;;;14.33;72.83;101151.63;5088761;28;20024;-77
2022/10/23 05:47:23;;;;;;;11.68;1.17;;;;;;;14.31;72.96;101151.69;5083830;28;20035;-77
2022/10/23 05:49:49;;;;;;;3.53;2.05;;;;;;;14.33;73.44;101143.63;5077324;28;20436;-77
2022/10/23 05:52:17;;;;;;;0.10;0.10;;;;;;;14.34;73.69;101145.38;5074899;28;20094;-76
2022/10/23 05:54:43;;;;;;;0.20;0.20;;;;;;;14.34;73.94;101146.28;5076217;28;20031;-76
2022/10/23 05:57:09;;;;;;;0.10;0.10;;;;;;;14.37;73.68;101145.31;5075784;28;20081;-77
2022/10/23 05:59:36;;;;;;;0.10;0.10;;;;;;;14.39;73.29;101140.78;5079644;28;20492;-76
2022/10/23 06:02:02;;;;;;;0.20;0.20;;;;;;;14.39;73.95;101122.13;5080454;28;20032;-76
2022/10/23 06:04:28;;;;;;;0.10;0.10;;;;;;;14.41;73.67;101122.97;5079889;28;20032;-76
2022/10/23 06:06:54;;;;;;;0.00;0.00;;;;;;;14.40;73.83;101115.88;5074082;28;20388;-77
2022/10/23 06:09:20;;;;;;;0.00;0.00;;;;;;;14.39;74.28;101122.13;5080575;28;20020;-77
2022/10/23 06:11:46;;;;;;;0.10;0.10;;;;;;;14.40;73.91;101121.22;5079896;28;20518;-77
2022/10/23 06:14:12;;;;;;;0.10;0.10;;;;;;;14.39;73.85;101116.78;5087608;28;20039;-77
2022/10/23 06:16:38;;;;;;;0.08;0.08;;;;;;;14.39;73.79;101119.47;5079557;28;20044;-77
2022/10/23 06:19:04;;;;;;;0.10;0.10;;;;;;;14.39;73.82;101106.13;5075280;28;20028;-77
2022/10/23 06:21:30;;;;;;;0.10;0.10;;;;;;;14.39;73.82;101112.34;5090307;28;20039;-77
2022/10/23 06:23:57;;;;;;;0.10;0.10;;;;;;;14.39;73.97;101100.81;5082134;28;20024;-77
2022/10/23 06:26:23;;;;;;;0.10;0.10;;;;;;;14.40;73.88;101097.22;5078725;28;20032;-77
2022/10/23 06:28:49;;;;;;;0.03;0.03;;;;;;;14.38;73.81;101096.38;5082719;28;20515;-77
2022/10/23 06:31:18;;;;;;;0.57;0.57;;;;;;;14.38;74.01;101099.03;5078828;28;20024;-76
2022/10/23 06:33:44;;;;;;;0.20;0.20;;;;;;;14.37;73.90;101100.00;5086085;28;20024;-76
2022/10/23 06:36:10;;;;;;;0.10;0.10;;;;;;;14.35;74.19;101092.03;5079653;28;20063;-76
2022/10/23 06:38:39;;;;;;;0.70;0.70;;;;;;;14.37;73.97;101089.34;5079926;28;20028;-76
2022/10/23 06:41:10;;;;;;;0.20;0.20;;;;;;;14.38;74.15;101088.38;5065482;28;20124;-76
2022/10/23 06:43:36;;;;;;;0.03;0.03;;;;;;;14.37;74.48;101076.88;5091618;28;20035;-76
2022/10/23 06:46:03;;;;;;;1.65;0.55;;;;;;;14.39;74.25;101071.47;5083934;28;20106;-77
2022/10/23 06:48:30;;;;;;;0.10;0.10;;;;;;;14.40;74.20;101070.56;5080969;28;20044;-77
2022/10/23 06:50:56;;;;;;;0.10;0.10;;;;;;;14.40;74.11;101068.78;5078624;28;20028;-76
2022/10/23 06:53:23;;;;;;;0.00;0.00;;;;;;;14.40;74.31;101075.91;5072837;28;20051;-77
2022/10/23 06:55:50;;;;;;;0.10;0.10;;;;;;;14.38;74.16;101077.72;5078223;28;20500;-77
2022/10/23 06:58:17;;;;;;;0.10;0.10;;;;;;;14.40;74.39;101067.91;5082061;28;20020;-77
2022/10/23 07:00:43;;;;;;;0.10;0.10;;;;;;;14.42;74.00;101074.06;5078571;28;20036;-77
2022/10/23 07:03:09;;;;;;;0.10;0.10;;;;;;;14.41;74.22;101074.97;5076374;28;20043;-77
2022/10/23 07:05:35;;;;;;;0.82;0.82;;;;;;;14.45;74.14;101073.09;5073648;28;20441;-77
2022/10/23 07:08:03;;;;;;;0.93;0.90;;;;;;;14.47;74.25;101060.59;5068524;28;20040;-77
2022/10/23 07:10:30;;;;;;;2.05;0.98;;;;;;;14.48;74.74;101071.19;5065657;28;20021;-77
2022/10/23 07:12:59;;;;;;;0.60;0.60;;;;;;;14.54;74.24;101062.09;5063366;28;20037;-77
2022/10/23 07:15:26;;;;;;;0.10;0.10;;;;;;;14.53;74.54;101050.59;5068275;28;20028;-77
2022/10/23 07:17:52;;;;;;;0.05;0.05;;;;;;;14.57;74.36;101043.34;5071738;28;20047;-77
2022/10/23 07:20:18;;;;;;;1.27;0.43;;;;;;;14.59;74.20;101043.28;5070529;28;20035;-76
2022/10/23 07:22:51;;;;;;;0.10;0.10;;;;;;;14.67;74.24;101046.63;5066180;28;20112;-77
2022/10/23 07:25:17;;;;;;;1.50;1.40;;;;;;;14.68;74.22;101059.03;5079042;28;20027;-76
2022/10/23 07:27:43;;;;;;;0.32;0.32;;;;;;;14.71;74.38;101069.59;5080200;28;20043;-76
2022/10/23 07:30:10;;;;;;;0.10;0.10;;;;;;;14.75;74.31;101073.03;5070031;28;20032;-77
2022/10/23 07:32:36;;;;;;;0.10;0.10;;;;;;;14.77;74.39;101057.84;5071219;28;20549;-76
2022/10/23 07:35:03;;;;;;;0.10;0.10;;;;;;;14.83;74.28;101057.66;5071286;28;20576;-77
2022/10/23 07:37:29;;;;;;;0.10;0.10;;;;;;;14.87;74.27;101053.94;5069263;28;20033;-76
2022/10/23 07:39:55;;;;;;;0.10;0.10;;;;;;;14.91;74.38;101044.91;5076061;28;20369;-77
2022/10/23 07:42:21;;;;;;;0.32;0.32;;;;;;;14.95;74.23;101051.00;5069484;28;20047;-76
2022/10/23 07:44:47;;;;;;;0.10;0.10;;;;;;;14.97;74.54;101043.81;5066643;28;20037;-77
2022/10/23 07:47:13;;;;;;;0.10;0.10;;;;;;;15.03;74.26;101038.28;5085338;28;20024;-76
2022/10/23 07:49:39;;;;;;;0.20;0.20;;;;;;;15.09;74.53;101042.50;5074741;28;20025;-77
2022/10/23 07:52:06;;;;;;;0.20;0.20;;;;;;;15.15;73.56;101037.81;5074937;28;20506;-77
2022/10/23 07:54:32;;;;;;;0.35;0.35;;;;;;;15.21;73.98;101042.06;5074636;28;20025;-76
2022/10/23 07:56:59;;;;;;;0.10;0.10;;;;;;;15.24;74.02;101028.63;5082423;28;20519;-77
2022/10/23 07:59:25;;;;;;;0.10;0.10;;;;;;;15.29;73.89;101023.97;5063936;28;20087;-77
2022/10/23 08:01:55;;;;;;;0.47;0.40;;;;;;;15.33;74.00;101035.41;5072259;28;20029;-76
2022/10/23 08:04:21;;;;;;;0.03;0.03;;;;;;;15.35;74.18;101031.75;5073151;28;20511;-77
2022/10/23 08:06:48;;;;;;;0.10;0.10;;;;;;;15.40;74.03;101031.56;5080142;28;20499;-76
2022/10/23 08:09:14;;;;;;;0.10;0.10;;;;;;;15.42;74.05;101032.38;5068378;28;20052;-76
2022/10/23 08:11:41;;;;;;;0.00;0.00;;;;;;;15.48;73.84;101029.50;5076971;28;20037;-77
2022/10/23 08:14:07;;;;;;;0.10;0.10;;;;;;;15.53;73.90;101034.66;5072242;28;20024;-76
2022/10/23 08:16:36;;;;;;;0.20;0.20;;;;;;;15.58;73.84;101029.16;5069235;28;20517;-76
2022/10/23 08:19:04;;;;;;;0.20;0.20;;;;;;;15.62;73.92;101025.44;5086689;28;20038;-77
2022/10/23 08:21:30;;;;;;;0.35;0.35;;;;;;;15.63;73.93;101017.34;5078183;28;20035;-76
2022/10/23 08:23:58;;;;;;;0.03;0.03;;;;;;;15.64;73.89;101012.91;5061464;28;20040;-78
2022/10/23 08:26:25;;;;;;;0.08;0.08;;;;;;;15.68;73.41;101009.19;5074303;28;20036;-76
2022/10/23 08:28:52;;;;;;;0.10;0.10;;;;;;;15.72;73.80;101009.94;5070074;28;20231;-76
2022/10/23 08:31:19;;;;;;;0.08;0.08;;;;;;;15.74;73.89;100998.25;5079697;28;20043;-77
2022/10/23 08:33:46;;;;;;;0.10;0.10;;;;;;;15.76;73.68;100996.38;5070643;28;20115;-76
2022/10/23 08:36:24;;;;;;;0.10;0.10;;;;;;;15.79;73.74;100993.59;5073400;28;20073;-76
2022/10/23 08:38:52;;;;;;;0.10;0.10;;;;;;;15.83;73.36;100992.56;5069311;28;20033;-76
2022/10/23 08:44:08;;;;;;;0.20;0.20;;;;;;;15.90;73.52;100985.19;5108481;27;20485;-77
2022/10/23 08:46:43;;;;;;;0.00;0.00;;;;;;;15.88;73.94;100984.38;5059465;28;20021;-77
2022/10/23 08:49:27;;;;;;;0.20;0.20;;;;;;;15.97;73.82;100996.50;5063692;28;20082;-77
2022/10/23 08:51:56;;;;;;;0.10;0.10;;;;;;;15.99;73.88;100982.13;5067937;28;20039;-76
2022/10/23 08:57:13;;;;;;;4.18;1.02;;;;;;;16.14;73.50;100979.78;5125452;27;20208;-77
2022/10/23 09:02:25;;;;;;;0.20;0.20;;;;;;;16.20;73.58;100968.84;5102051;27;20154;-77
2022/10/23 09:04:53;;;;;;;0.10;0.10;;;;;;;16.21;73.30;100969.69;5052629;28;20025;-77
2022/10/23 09:10:41;;;;;;;0.10;0.10;;;;;;;16.26;73.16;100952.53;5119295;27;20190;-77
2022/10/23 09:13:47;;;;;;;0.25;0.25;;;;;;;16.33;73.23;100953.13;5090534;28;20503;-77
2022/10/23 09:18:50;;;;;;;0.32;0.32;;;;;;;16.31;73.60;100941.63;5123800;27;785471;-77
2022/10/23 09:21:16;;;;;;;0.10;0.10;;;;;;;16.38;73.31;100945.78;5150429;27;20041;-77
2022/10/23 09:23:42;;;;;;;0.25;0.25;;;;;;;16.39;73.07;100942.19;5153105;27;20043;-77
2022/10/23 09:26:17;;;;;;;0.22;0.22;;;;;;;16.48;72.65;100939.09;5147488;27;20023;-77
2022/10/23 09:28:50;;;;;;;0.10;0.10;;;;;;;16.45;72.83;100936.56;5127239;27;20030;-78
2022/10/23 09:31:18;;;;;;;0.28;0.28;;;;;;;16.44;72.80;100940.19;5134681;27;20455;-77
2022/10/23 09:34:00;;;;;;;1.00;0.90;;;;;;;16.53;72.66;100935.38;5122121;27;20139;-77
2022/10/23 09:36:28;;;;;;;0.05;0.05;;;;;;;16.45;72.90;100931.22;5120148;27;20477;-78
2022/10/23 09:38:58;;;;;;;0.08;0.08;;;;;;;16.49;73.05;100929.28;5124343;27;20031;-76
2022/10/23 09:49:47;;;;;;;0.20;0.20;;;;;;;16.71;72.40;100897.13;5110571;27;20199;-77
2022/10/23 09:54:53;;;;;;;0.03;0.03;;;;;;;16.82;72.82;100908.19;5111022;27;20165;-77
2022/10/23 09:57:41;;;;;;;0.30;0.30;;;;;;;16.92;72.37;100905.13;5087313;28;20016;-77
2022/10/23 10:03:17;;;;;;;0.10;0.10;;;;;;;16.97;72.28;100895.97;5160220;27;90054;-78
2022/10/23 10:05:51;;;;;;;0.00;0.00;;;;;;;16.90;72.29;100893.63;5129781;27;20134;-78
2022/10/23 10:11:16;;;;;;;0.10;0.10;;;;;;;17.03;71.95;100889.44;5099729;27;20165;-77
2022/10/23 10:14:09;;;;;;;0.05;0.05;;;;;;;17.08;71.91;100882.06;5049565;28;20036;-76
2022/10/23 10:16:47;;;;;;;0.17;0.17;;;;;;;17.12;71.83;100881.00;5058678;28;20131;-77
2022/10/23 10:19:41;;;;;;;0.10;0.10;;;;;;;17.23;71.86;100879.63;5049895;28;20489;-77
2022/10/23 10:24:57;;;;;;;0.25;0.25;;;;;;;17.29;71.65;100842.69;5079718;27;20140;-78
2022/10/23 10:27:49;;;;;;;0.10;0.10;;;;;;;17.36;71.28;100858.47;5039392;28;20492;-77
2022/10/23 10:30:19;;;;;;;0.10;0.10;;;;;;;17.34;71.64;100855.00;5047608;28;20029;-78
2022/10/23 10:33:05;;;;;;;0.10;0.10;;;;;;;17.42;71.64;100863.53;5045224;28;20045;-77
2022/10/23 10:41:28;;;;;;;0.10;0.10;;;;;;;17.56;72.42;100834.25;5127256;27;20385;-77
2022/10/23 10:44:13;;;;;;;0.30;0.30;;;;;;;17.77;71.66;100826.97;5050828;28;20300;-77
2022/10/23 10:47:19;;;;;;;0.30;0.30;;;;;;;17.89;71.14;100808.53;5014023;28;20110;-77
2022/10/23 10:52:46;;;;;;;0.20;0.20;;;;;;;17.98;70.70;100797.38;5092199;27;20161;-77
2022/10/23 10:55:18;;;;;;;0.15;0.15;;;;;;;18.00;70.76;100789.25;5069954;28;20052;-77
2022/10/23 10:57:50;;;;;;;0.10;0.10;;;;;;;18.07;71.01;100788.00;5065736;28;20036;-78
2022/10/23 11:00:21;;;;;;;0.25;0.25;;;;;;;18.10;70.83;100783.31;5066342;28;20403;-78
2022/10/23 11:02:50;;;;;;;0.00;0.00;;;;;;;18.14;70.33;100775.97;5069794;28;20049;-77
2022/10/23 11:08:41;;;;;;;0.00;0.00;;;;;;;18.31;69.68;100763.50;5102647;27;20210;-78
2022/10/23 11:11:17;;;;;;;0.63;0.45;;;;;;;18.37;69.92;100755.97;5072671;28;20507;-77
2022/10/23 11:13:44;;;;;;;0.10;0.10;;;;;;;18.40;70.04;100750.44;5074557;28;20032;-77
2022/10/23 11:16:30;;;;;;;0.10;0.10;;;;;;;18.47;69.38;100747.41;5069717;28;20033;-76
2022/10/23 11:21:49;;;;;;;1.00;0.40;;;;;;;18.42;68.92;100734.28;5100903;27;20458;-78
2022/10/23 11:24:38;;;;;;;0.10;0.10;;;;;;;18.71;69.04;100721.91;5088582;28;20040;-78
2022/10/23 11:27:26;;;;;;;0.10;0.10;;;;;;;18.81;68.59;100714.19;5086997;28;20024;-79
2022/10/23 11:38:22;;;;;;;0.10;0.10;;;;;;;19.10;67.85;100705.47;5103618;27;20494;-76
2022/10/23 11:40:51;;;;;;;0.10;0.10;;;;;;;19.27;67.07;100699.97;5106834;27;20040;-78
2022/10/23 11:43:46;;;;;;;0.45;0.40;;;;;;;19.43;66.35;100694.56;5103791;28;20024;-78
2022/10/23 11:46:28;;;;;;;0.52;0.52;;;;;;;19.47;66.25;100687.19;5089378;28;20024;-80
2022/10/23 11:48:55;;;;;;;0.10;0.10;;;;;;;19.52;66.55;100690.47;5084332;28;20028;-78
2022/10/23 11:51:39;;;;;;;0.10;0.10;;;;;;;19.63;66.31;100688.00;5087344;28;20293;-78
2022/10/23 12:02:37;;;;;;;0.13;0.13;;;;;;;19.59;64.92;100664.94;5136452;27;20156;-78
2022/10/23 12:05:09;;;;;;;0.20;0.20;;;;;;;19.57;64.97;100669.53;5099458;28;20514;-78
2022/10/23 12:07:38;;;;;;;0.00;0.00;;;;;;;19.53;64.87;100668.00;5087151;28;20032;-78
2022/10/23 12:10:26;;;;;;;0.40;0.40;;;;;;;19.58;64.95;100652.47;5082344;28;21798;-78
2022/10/23 12:12:58;;;;;;;0.10;0.10;;;;;;;19.69;65.16;100647.31;5088931;28;20039;-78
2022/10/23 12:15:26;;;;;;;0.30;0.30;;;;;;;19.66;65.39;100639.41;5087836;28;20051;-78
2022/10/23 12:17:55;;;;;;;0.10;0.10;;;;;;;19.67;64.42;100640.28;5098207;28;20043;-79
2022/10/23 12:20:44;;;;;;;0.10;0.10;;;;;;;19.75;64.16;100634.44;5084585;28;20036;-79
2022/10/23 12:23:29;;;;;;;0.00;0.00;;;;;;;19.79;64.14;100635.97;5086873;28;20048;-79
2022/10/23 12:26:26;;;;;;;0.10;0.10;;;;;;;19.93;64.62;100638.69;5085324;28;20050;-80
2022/10/23 12:31:45;;;;;;;0.20;0.20;;;;;;;20.10;63.66;100642.16;5126512;27;20116;-77
2022/10/23 12:39:37;;;;;;;0.20;0.20;;;;;;;20.15;64.14;100630.16;5101137;27;20471;-78
2022/10/23 12:42:05;;;;;;;0.20;0.20;;;;;;;20.29;63.37;100620.34;5091632;28;20035;-80
2022/10/23 12:44:31;;;;;;;0.10;0.10;;;;;;;20.37;62.80;100618.00;5087465;28;20037;-79
2022/10/23 12:47:00;;;;;;;0.57;0.57;;;;;;;20.47;63.38;100623.66;5078037;28;20086;-78
2022/10/23 12:49:32;;;;;;;0.10;0.10;;;;;;;20.48;62.61;100614.63;5081915;28;20381;-78
2022/10/23 12:52:03;;;;;;;0.10;0.10;;;;;;;20.44;62.58;100597.78;5089980;28;20028;-77
2022/10/23 12:54:32;;;;;;;0.10;0.10;;;;;;;20.50;62.73;100600.09;5097674;28;20039;-79
2022/10/23 12:56:58;;;;;;;0.10;0.10;;;;;;;20.49;62.64;100582.22;5088064;28;20431;-79
2022/10/23 12:59:35;;;;;;;0.10;0.10;;;;;;;20.50;62.37;100575.03;5080369;28;20054;-79
2022/10/23 13:02:01;;;;;;;0.10;0.10;;;;;;;20.59;63.09;100569.00;5090915;28;20523;-79
2022/10/23 13:04:30;;;;;;;0.10;0.10;;;;;;;20.62;62.58;100568.81;5088696;28;20087;-79
2022/10/23 13:06:59;;;;;;;0.00;0.00;;;;;;;20.63;62.74;100559.75;5089829;28;20423;-78
2022/10/23 13:09:32;;;;;;;0.15;0.15;;;;;;;20.66;62.93;100548.78;5089916;28;20017;-79
2022/10/23 13:12:03;;;;;;;0.43;0.43;;;;;;;20.70;62.68;100538.69;5086981;28;20040;-78
2022/10/23 13:14:39;;;;;;;0.20;0.20;;;;;;;20.77;62.26;100544.53;5080862;28;20051;-80
2022/10/23 13:17:08;;;;;;;0.10;0.10;;;;;;;20.73;62.17;100535.81;5085628;28;20033;-79